createdAt,value
2024-03-01T00:00:43.024Z,4.65
2024-03-01T00:03:10.457Z,3.90
2024-03-01T00:05:37.699Z,4.70
2024-03-01T00:08:05.457Z,4.57
2024-03-01T00:10:32.608Z,3.55
2024-03-01T00:12:59.691Z,3.60
2024-03-01T00:15:26.621Z,4.07
2024-03-01T00:17:53.821Z,3.60
2024-03-01T00:20:20.798Z,3.70
2024-03-01T00:22:48.790Z,4.22
2024-03-01T00:25:15.834Z,3.85
2024-03-01T00:27:42.731Z,3.63
2024-03-01T00:30:10.359Z,3.60
2024-03-01T00:32:37.405Z,3.65
2024-03-01T00:35:04.827Z,4.38
2024-03-01T00:37:31.862Z,3.83
2024-03-01T00:39:59.210Z,4.20
2024-03-01T00:42:26.244Z,4.18
2024-03-01T00:44:53.323Z,4.97
2024-03-01T00:47:20.455Z,4.63
2024-03-01T00:49:49.292Z,4.60
2024-03-01T00:52:16.495Z,5.97
2024-03-01T00:54:43.673Z,5.22
2024-03-01T00:57:12.211Z,5.10
2024-03-01T00:59:39.303Z,5.30
2024-03-01T01:02:08.654Z,1.50
2024-03-01T01:04:36.597Z,1.23
2024-03-01T01:07:03.714Z,1.10
2024-03-01T01:09:30.769Z,1.15
2024-03-01T01:11:57.844Z,1.10
2024-03-01T01:14:24.791Z,1.35
2024-03-01T01:16:51.941Z,1.38
2024-03-01T01:19:20.231Z,1.38
2024-03-01T01:21:47.171Z,1.30
2024-03-01T01:24:14.268Z,1.40
2024-03-01T01:26:41.388Z,1.05
2024-03-01T01:29:08.346Z,1.45
2024-03-01T01:31:35.547Z,0.80
2024-03-01T01:34:02.558Z,1.05
2024-03-01T01:36:29.431Z,1.10
2024-03-01T01:38:56.777Z,0.65
2024-03-01T01:41:24.037Z,1.00
2024-03-01T01:43:51.176Z,0.85
2024-03-01T01:46:18.385Z,0.80
2024-03-01T01:48:46.301Z,0.60
2024-03-01T01:51:18.293Z,0.90
2024-03-01T01:53:46.116Z,1.30
2024-03-01T01:56:16.160Z,1.13
2024-03-01T01:58:44.939Z,1.33
2024-03-01T02:01:12.519Z,1.52
2024-03-01T02:03:40.153Z,1.38
2024-03-01T02:06:08.059Z,1.70
2024-03-01T02:08:37.483Z,2.03
2024-03-01T02:11:05.978Z,1.83
2024-03-01T02:13:33.220Z,1.70
2024-03-01T02:16:00.903Z,2.20
2024-03-01T02:18:28.762Z,2.33
2024-03-01T02:21:13.320Z,2.25
2024-03-01T02:23:40.368Z,2.38
2024-03-01T02:26:07.743Z,2.95
2024-03-01T02:28:42.781Z,2.85
2024-03-01T02:31:09.632Z,3.30
2024-03-01T02:33:36.908Z,3.78
2024-03-01T02:36:04.629Z,4.03
2024-03-01T02:38:31.648Z,5.28
2024-03-01T02:40:58.675Z,6.18
2024-03-01T02:43:26.048Z,6.65
2024-03-01T02:45:53.221Z,6.53
2024-03-01T02:48:20.153Z,7.63
2024-03-01T02:50:47.307Z,7.85
2024-03-01T02:53:14.293Z,6.90
2024-03-01T02:55:41.315Z,5.95
2024-03-01T02:58:08.449Z,6.40
2024-03-01T03:00:35.626Z,6.32
2024-03-01T03:03:02.461Z,6.28
2024-03-01T03:05:29.562Z,5.50
2024-03-01T03:07:57.919Z,5.22
2024-03-01T03:10:24.887Z,5.57
2024-03-01T03:12:51.967Z,5.05
2024-03-01T03:15:19.253Z,5.97
2024-03-01T03:17:46.628Z,5.32
2024-03-01T03:20:16.759Z,6.32
2024-03-01T03:22:46.875Z,6.18
2024-03-01T03:25:15.289Z,6.18
2024-03-01T03:27:44.511Z,4.63
2024-03-01T03:30:12.108Z,6.10
2024-03-01T03:32:39.432Z,6.35
2024-03-01T03:35:06.694Z,6.03
2024-03-01T03:37:34.125Z,6.78
2024-03-01T03:40:01.723Z,7.18
2024-03-01T03:42:29.747Z,7.20
2024-03-01T03:44:56.997Z,7.75
2024-03-01T03:47:24.293Z,6.78
2024-03-01T03:49:51.076Z,8.65
2024-03-01T03:52:18.167Z,8.07
2024-03-01T03:54:45.862Z,7.57
2024-03-01T03:57:13.197Z,7.57
2024-03-01T03:59:40.178Z,7.35
2024-03-01T04:02:07.628Z,7.03
2024-03-01T04:04:34.873Z,7.22
2024-03-01T04:07:02.271Z,6.95
2024-03-01T04:09:29.275Z,7.25
2024-03-01T04:11:57.265Z,8.18
2024-03-01T04:14:24.518Z,6.78
2024-03-01T04:16:51.670Z,7.53
2024-03-01T04:19:18.652Z,7.00
2024-03-01T04:21:45.774Z,7.45
2024-03-01T04:24:13.988Z,8.13
2024-03-01T04:26:41.367Z,7.35
2024-03-01T04:29:08.611Z,6.38
2024-03-01T04:31:37.297Z,7.72
2024-03-01T04:34:07.516Z,7.32
2024-03-01T04:36:34.883Z,6.82
2024-03-01T04:39:01.974Z,6.32
2024-03-01T04:41:29.294Z,5.97
2024-03-01T04:43:56.733Z,6.95
2024-03-01T04:46:24.061Z,6.20
2024-03-01T04:48:54.176Z,6.20
2024-03-01T04:51:24.532Z,6.75
2024-03-01T04:53:52.064Z,6.60
2024-03-01T04:56:19.124Z,6.40
2024-03-01T04:58:46.206Z,6.40
2024-03-01T05:01:13.366Z,7.10
2024-03-01T05:03:45.063Z,6.35
2024-03-01T05:06:12.459Z,7.72
2024-03-01T05:08:39.775Z,6.72
2024-03-01T05:11:07.492Z,7.03
2024-03-01T05:13:34.761Z,7.15
2024-03-01T05:16:02.278Z,6.30
2024-03-01T05:18:29.485Z,6.40
2024-03-01T05:20:56.625Z,6.40
2024-03-01T05:23:23.597Z,6.53
2024-03-01T05:25:50.742Z,5.80
2024-03-01T05:28:17.677Z,5.65
2024-03-01T05:30:50.091Z,5.15
2024-03-01T05:33:20.157Z,5.50
2024-03-01T05:35:47.536Z,6.78
2024-03-01T05:38:14.447Z,5.57
2024-03-01T05:40:47.077Z,5.50
2024-03-01T05:43:22.791Z,5.25
2024-03-01T05:45:51.318Z,4.85
2024-03-01T05:48:18.911Z,5.03
2024-03-01T05:50:46.116Z,5.25
2024-03-01T05:53:17.069Z,4.60
2024-03-01T05:55:45.080Z,4.68
2024-03-01T05:58:12.488Z,4.15
2024-03-01T06:00:44.638Z,4.25
2024-03-01T06:03:12.281Z,4.60
2024-03-01T06:05:39.359Z,4.22
2024-03-01T06:08:07.396Z,5.93
2024-03-01T06:10:34.673Z,4.35
2024-03-01T06:13:01.919Z,3.58
2024-03-01T06:15:29.445Z,3.70
2024-03-01T06:17:56.317Z,3.10
2024-03-01T06:20:23.390Z,4.53
2024-03-01T06:22:50.381Z,4.32
2024-03-01T06:25:17.549Z,4.45
2024-03-01T06:27:44.600Z,3.83
2024-03-01T06:30:11.563Z,4.00
2024-03-01T06:32:38.765Z,3.58
2024-03-01T06:35:05.932Z,3.88
2024-03-01T06:37:33.148Z,4.50
2024-03-01T06:40:00.374Z,3.78
2024-03-01T06:42:28.474Z,5.13
2024-03-01T06:44:55.503Z,4.28
2024-03-01T06:47:23.098Z,4.28
2024-03-01T06:49:50.550Z,4.13
2024-03-01T06:52:17.683Z,4.53
2024-03-01T06:54:47.869Z,4.72
2024-03-01T06:57:14.869Z,4.50
2024-03-01T06:59:41.844Z,3.25
2024-03-01T07:02:09.455Z,3.28
2024-03-01T07:04:36.619Z,3.60
2024-03-01T07:07:03.957Z,3.95
2024-03-01T07:09:33.673Z,3.70
2024-03-01T07:14:27.881Z,3.70
2024-03-01T07:16:54.832Z,3.75
2024-03-01T07:19:21.946Z,3.67
2024-03-01T07:21:49.371Z,2.03
2024-03-01T07:24:16.519Z,2.95
2024-03-01T07:26:43.457Z,2.60
2024-03-01T07:29:10.515Z,2.47
2024-03-01T07:31:37.800Z,2.53
2024-03-01T07:34:05.091Z,2.15
2024-03-01T07:36:32.136Z,2.25
2024-03-01T07:38:59.058Z,2.83
2024-03-01T07:41:26.328Z,2.33
2024-03-01T07:43:53.763Z,2.80
2024-03-01T07:46:20.989Z,2.35
2024-03-01T07:48:48.317Z,2.78
2024-03-01T07:51:15.345Z,2.38
2024-03-01T07:53:42.530Z,2.47
2024-03-01T07:56:10.087Z,2.35
2024-03-01T07:58:37.671Z,2.67
2024-03-01T08:01:05.272Z,2.50
2024-03-01T08:03:35.772Z,2.15
2024-03-01T08:06:02.986Z,2.20
2024-03-01T08:08:45.825Z,2.05
2024-03-01T08:11:19.343Z,2.25
2024-03-01T08:13:50.351Z,2.20
2024-03-01T08:16:21.602Z,2.17
2024-03-01T08:18:48.743Z,2.08
2024-03-01T08:21:17.910Z,1.65
2024-03-01T08:23:45.509Z,1.48
2024-03-01T08:26:23.275Z,1.45
2024-03-01T08:28:51.331Z,2.15
2024-03-01T08:31:30.948Z,2.47
2024-03-01T08:34:22.131Z,2.28
2024-03-01T08:36:53.952Z,1.73
2024-03-01T08:39:23.862Z,2.25
2024-03-01T08:41:53.291Z,3.03
2024-03-01T08:45:04.184Z,1.50
2024-03-01T08:47:41.888Z,1.80
2024-03-01T08:50:41.913Z,2.47
2024-03-01T08:53:41.081Z,2.03
2024-03-01T08:56:18.649Z,2.30
2024-03-01T08:58:46.851Z,1.95
2024-03-01T09:01:47.767Z,2.42
2024-03-01T09:04:26.117Z,2.03
2024-03-01T09:07:17.053Z,2.22
2024-03-01T09:09:44.972Z,1.80
2024-03-01T09:12:25.416Z,1.90
2024-03-01T09:15:02.126Z,1.23
2024-03-01T09:17:29.703Z,1.63
2024-03-01T09:19:56.791Z,1.30
2024-03-01T09:22:25.676Z,1.33
2024-03-01T09:24:53.593Z,1.00
2024-03-01T09:27:25.327Z,1.00
2024-03-01T09:29:52.658Z,0.80
2024-03-01T09:32:19.980Z,1.00
2024-03-01T09:34:47.124Z,0.88
2024-03-01T09:37:16.948Z,0.98
2024-03-01T09:42:38.407Z,1.00
2024-03-01T09:45:36.213Z,0.98
2024-03-01T09:48:41.176Z,1.58
2024-03-01T09:51:17.261Z,1.20
2024-03-01T09:53:59.415Z,0.60
2024-03-01T09:57:00.458Z,1.00
2024-03-01T09:59:34.057Z,0.90
2024-03-01T10:02:14.625Z,1.13
2024-03-01T10:05:11.169Z,1.20
2024-03-01T10:07:49.383Z,0.93
2024-03-01T10:10:22.610Z,0.63
2024-03-01T10:13:06.866Z,0.90
2024-03-01T10:15:48.849Z,0.90
2024-03-01T10:18:25.108Z,1.10
2024-03-01T10:21:23.012Z,1.00
2024-03-01T10:23:58.909Z,0.90
2024-03-01T10:26:31.946Z,1.10
2024-03-01T10:29:22.074Z,0.75
2024-03-01T10:32:18.395Z,0.80
2024-03-01T10:34:51.767Z,0.77
2024-03-01T10:37:36.900Z,0.93
2024-03-01T10:40:19.817Z,0.95
2024-03-01T10:43:12.381Z,0.80
2024-03-01T10:45:56.823Z,1.65
2024-03-01T10:48:25.100Z,1.00
2024-03-01T10:51:03.738Z,1.10
2024-03-01T10:53:38.954Z,1.40
2024-03-01T10:56:09.986Z,0.80
2024-03-01T10:58:52.153Z,0.70
2024-03-01T11:01:41.559Z,0.68
2024-03-01T11:04:17.476Z,0.77
2024-03-01T11:07:02.920Z,0.88
2024-03-01T11:09:41.503Z,0.93
2024-03-01T11:12:32.241Z,0.93
2024-03-01T11:15:13.673Z,0.68
2024-03-01T11:17:44.855Z,0.77
2024-03-01T11:20:26.525Z,0.80
2024-03-01T11:23:17.467Z,1.10
2024-03-01T11:26:17.783Z,0.50
2024-03-01T11:28:56.403Z,1.50
2024-03-01T11:31:30.456Z,1.35
2024-03-01T11:34:02.996Z,0.90
2024-03-01T11:36:53.093Z,0.85
2024-03-01T11:39:51.884Z,0.80
2024-03-01T11:42:42.076Z,1.25
2024-03-01T11:45:39.229Z,1.15
2024-03-01T11:48:27.105Z,1.10
2024-03-01T11:51:19.379Z,2.42
2024-03-01T11:54:21.154Z,0.70
2024-03-01T11:57:15.394Z,0.80
2024-03-01T11:59:54.893Z,0.93
2024-03-01T12:02:36.965Z,0.73
2024-03-01T12:05:22.531Z,1.13
2024-03-01T12:08:28.649Z,1.10
2024-03-01T12:11:47.318Z,1.02
2024-03-01T12:14:22.317Z,2.17
2024-03-01T12:17:17.845Z,1.20
2024-03-01T12:19:55.187Z,0.60
2024-03-01T12:22:37.279Z,2.03
2024-03-01T12:25:04.842Z,1.90
2024-03-01T12:27:38.102Z,1.35
2024-03-01T12:30:43.615Z,0.63
2024-03-01T12:33:33.611Z,1.42
2024-03-01T12:36:08.468Z,1.00
2024-03-01T12:38:46.905Z,1.90
2024-03-01T12:41:30.626Z,1.95
2024-03-01T12:43:57.890Z,1.08
2024-03-01T12:46:39.904Z,1.20
2024-03-01T12:49:25.934Z,1.55
2024-03-01T12:51:56.292Z,1.48
2024-03-01T12:54:32.692Z,1.00
2024-03-01T12:57:09.785Z,2.03
2024-03-01T13:00:15.863Z,0.88
2024-03-01T13:03:15.621Z,0.90
2024-03-01T13:05:43.744Z,3.13
2024-03-01T13:08:40.688Z,1.40
2024-03-01T13:11:11.962Z,1.08
2024-03-01T13:13:42.325Z,1.27
2024-03-01T13:16:12.271Z,2.15
2024-03-01T13:19:04.054Z,1.42
2024-03-01T13:21:56.607Z,0.90
2024-03-01T13:24:30.448Z,1.48
2024-03-01T13:27:18.100Z,1.63
2024-03-01T13:29:48.843Z,1.08
2024-03-01T13:32:36.023Z,1.20
2024-03-01T13:35:14.698Z,1.23
2024-03-01T13:38:12.698Z,1.40
2024-03-01T13:40:48.431Z,1.15
2024-03-01T13:43:26.282Z,1.52
2024-03-01T13:46:06.168Z,1.10
2024-03-01T13:48:37.375Z,1.35
2024-03-01T13:51:06.542Z,1.90
2024-03-01T13:56:15.160Z,1.80
2024-03-01T13:58:42.324Z,1.25
2024-03-01T14:01:09.811Z,1.20
2024-03-01T14:03:36.750Z,0.90
2024-03-01T14:06:04.502Z,1.17
2024-03-01T14:08:31.672Z,1.20
2024-03-01T14:10:58.941Z,1.40
2024-03-01T14:13:32.616Z,1.17
2024-03-01T14:16:08.682Z,1.30
2024-03-01T14:18:36.378Z,1.73
2024-03-01T14:21:04.657Z,1.35
2024-03-01T14:23:31.531Z,1.23
2024-03-01T14:25:59.522Z,1.77
2024-03-01T14:28:28.039Z,1.23
2024-03-01T14:30:54.928Z,1.92
2024-03-01T14:33:23.106Z,1.00
2024-03-01T14:36:01.922Z,1.33
2024-03-01T14:38:28.956Z,1.10
2024-03-01T14:40:57.207Z,2.42
2024-03-01T14:43:25.563Z,2.15
2024-03-01T14:45:53.837Z,1.58
2024-03-01T14:48:33.987Z,2.00
2024-03-01T14:51:07.449Z,1.20
2024-03-01T14:53:47.605Z,1.58
2024-03-01T14:56:14.808Z,1.67
2024-03-01T14:58:45.436Z,1.75
2024-03-01T15:01:13.697Z,1.13
2024-03-01T15:03:41.293Z,1.10
2024-03-01T15:06:10.468Z,1.65
2024-03-01T15:08:38.317Z,2.05
2024-03-01T15:11:13.500Z,0.93
2024-03-01T15:13:42.845Z,1.00
2024-03-01T15:16:20.484Z,1.60
2024-03-01T15:18:48.249Z,1.83
2024-03-01T15:21:18.915Z,2.92
2024-03-01T15:23:45.969Z,2.28
2024-03-01T15:26:12.971Z,1.40
2024-03-01T15:28:40.669Z,1.27
2024-03-01T15:31:10.252Z,1.08
2024-03-01T15:33:37.732Z,1.40
2024-03-01T15:36:05.067Z,1.75
2024-03-01T15:38:33.420Z,1.35
2024-03-01T15:41:01.579Z,1.83
2024-03-01T15:43:28.990Z,1.17
2024-03-01T15:45:55.931Z,1.40
2024-03-01T15:48:23.076Z,1.27
2024-03-01T15:50:49.932Z,1.05
2024-03-01T15:53:22.042Z,1.30
2024-03-01T15:56:07.744Z,1.10
2024-03-01T15:58:35.800Z,1.50
2024-03-01T16:01:08.560Z,1.20
2024-03-01T16:03:36.013Z,1.52
2024-03-01T16:06:03.969Z,1.60
2024-03-01T16:08:31.027Z,1.27
2024-03-01T16:11:02.437Z,1.25
2024-03-01T16:13:34.544Z,1.40
2024-03-01T16:16:03.025Z,1.40
2024-03-01T16:18:34.318Z,2.53
2024-03-01T16:21:01.998Z,1.98
2024-03-01T16:23:29.678Z,1.30
2024-03-01T16:25:57.260Z,1.55
2024-03-01T16:28:29.050Z,1.80
2024-03-01T16:31:01.284Z,1.98
2024-03-01T16:33:28.922Z,2.67
2024-03-01T16:36:11.899Z,1.95
2024-03-01T16:38:41.981Z,1.40
2024-03-01T16:41:32.729Z,1.60
2024-03-01T16:44:02.423Z,1.75
2024-03-01T16:46:37.913Z,1.52
2024-03-01T16:49:11.033Z,1.17
2024-03-01T16:51:43.251Z,1.25
2024-03-01T16:54:31.053Z,1.42
2024-03-01T16:57:11.868Z,1.30
2024-03-01T16:59:39.802Z,1.38
2024-03-01T17:02:27.334Z,1.60
2024-03-01T17:04:54.632Z,1.30
2024-03-01T17:07:34.099Z,1.77
2024-03-01T17:10:01.152Z,2.08
2024-03-01T17:12:28.048Z,1.65
2024-03-01T17:14:56.152Z,1.30
2024-03-01T17:17:23.025Z,1.83
2024-03-01T17:19:50.247Z,2.42
2024-03-01T17:22:18.785Z,1.77
2024-03-01T17:24:47.635Z,1.42
2024-03-01T17:27:15.714Z,1.37
2024-03-01T17:29:44.404Z,1.30
2024-03-01T17:32:11.459Z,1.40
2024-03-01T17:34:38.560Z,1.40
2024-03-01T17:37:05.579Z,1.77
2024-03-01T17:39:32.666Z,1.10
2024-03-01T17:41:59.647Z,1.40
2024-03-01T17:44:26.712Z,1.58
2024-03-01T17:46:53.773Z,1.45
2024-03-01T17:49:25.897Z,1.40
2024-03-01T17:51:52.880Z,1.45
2024-03-01T17:54:19.807Z,1.00
2024-03-01T17:56:46.957Z,2.00
2024-03-01T17:59:14.774Z,1.20
2024-03-01T18:01:42.158Z,1.40
2024-03-01T18:04:09.243Z,2.80
2024-03-01T18:06:39.034Z,1.45
2024-03-01T18:11:34.819Z,3.70
2024-03-01T18:14:02.308Z,1.95
2024-03-01T18:16:30.233Z,2.60
2024-03-01T18:18:57.608Z,1.67
2024-03-01T18:21:25.056Z,1.20
2024-03-01T18:23:52.281Z,1.63
2024-03-01T18:26:19.171Z,1.15
2024-03-01T18:28:46.308Z,1.17
2024-03-01T18:31:13.236Z,1.42
2024-03-01T18:33:40.766Z,2.55
2024-03-01T18:36:07.894Z,1.17
2024-03-01T18:38:34.845Z,1.80
2024-03-01T18:41:01.970Z,1.20
2024-03-01T18:43:31.005Z,1.40
2024-03-01T18:45:58.064Z,1.80
2024-03-01T18:48:25.158Z,1.45
2024-03-01T18:50:53.077Z,1.23
2024-03-01T18:53:20.033Z,1.73
2024-03-01T18:55:47.109Z,1.35
2024-03-01T18:58:14.475Z,2.38
2024-03-01T19:00:43.850Z,1.70
2024-03-01T19:03:12.491Z,2.00
2024-03-01T19:05:39.732Z,1.52
2024-03-01T19:08:08.896Z,1.35
2024-03-01T19:10:36.326Z,2.55
2024-03-01T19:13:03.429Z,1.60
2024-03-01T19:15:30.576Z,2.17
2024-03-01T19:18:00.081Z,1.38
2024-03-01T19:22:54.403Z,1.63
2024-03-01T19:25:21.522Z,1.40
2024-03-01T19:27:48.460Z,1.25
2024-03-01T19:30:17.033Z,1.50
2024-03-01T19:32:47.513Z,1.73
2024-03-01T19:35:14.584Z,1.23
2024-03-01T19:37:41.852Z,1.50
2024-03-01T19:40:10.697Z,1.45
2024-03-01T19:42:37.887Z,2.87
2024-03-01T19:45:05.190Z,1.58
2024-03-01T19:47:33.435Z,1.35
2024-03-01T19:50:00.603Z,1.17
2024-03-01T19:52:27.637Z,1.30
2024-03-01T19:54:54.767Z,1.40
2024-03-01T19:57:21.793Z,1.77
2024-03-01T19:59:48.812Z,1.17
2024-03-01T20:02:15.943Z,1.33
2024-03-01T20:04:42.861Z,0.90
2024-03-01T20:07:09.960Z,1.40
2024-03-01T20:09:38.052Z,1.52
2024-03-01T20:12:05.630Z,1.27
2024-03-01T20:14:32.746Z,1.40
2024-03-01T20:17:00.457Z,1.13
2024-03-01T20:19:27.673Z,1.23
2024-03-01T20:21:54.708Z,1.30
2024-03-01T20:24:22.314Z,1.20
2024-03-01T20:26:49.179Z,1.55
2024-03-01T20:29:16.264Z,1.20
2024-03-01T20:31:43.702Z,1.40
2024-03-01T20:34:11.443Z,1.15
2024-03-01T20:36:38.750Z,1.23
2024-03-01T20:39:09.976Z,0.80
2024-03-01T20:41:37.242Z,0.98
2024-03-01T20:44:04.709Z,0.93
2024-03-01T20:46:32.715Z,1.60
2024-03-01T20:48:59.990Z,1.10
2024-03-01T20:51:28.183Z,0.60
2024-03-01T20:53:55.668Z,1.00
2024-03-01T20:56:23.200Z,0.80
2024-03-01T20:58:50.234Z,1.77
2024-03-01T21:01:17.441Z,1.58
2024-03-01T21:03:44.755Z,1.23
2024-03-01T21:06:11.669Z,1.08
2024-03-01T21:08:38.880Z,0.82
2024-03-01T21:11:05.966Z,0.85
2024-03-01T21:13:33.007Z,2.10
2024-03-01T21:15:59.908Z,0.88
2024-03-01T21:18:28.306Z,1.17
2024-03-01T21:20:55.363Z,0.98
2024-03-01T21:23:22.732Z,0.90
2024-03-01T21:25:49.782Z,1.20
2024-03-01T21:28:16.567Z,0.73
2024-03-01T21:30:44.397Z,0.88
2024-03-01T21:33:11.704Z,1.00
2024-03-01T21:35:38.806Z,0.82
2024-03-01T21:38:05.957Z,0.40
2024-03-01T21:40:32.916Z,0.50
2024-03-01T21:42:59.967Z,0.57
2024-03-01T21:45:27.142Z,0.90
2024-03-01T21:47:54.153Z,0.50
2024-03-01T21:50:21.243Z,0.43
2024-03-01T21:52:49.717Z,0.40
2024-03-01T21:55:17.396Z,0.40
2024-03-01T21:57:44.987Z,0.60
2024-03-01T22:00:12.474Z,0.57
2024-03-01T22:02:39.654Z,0.40
2024-03-01T22:05:06.955Z,0.30
2024-03-01T22:07:34.110Z,0.50
2024-03-01T22:10:01.415Z,1.17
2024-03-01T22:12:28.830Z,0.50
2024-03-01T22:14:56.171Z,0.65
2024-03-01T22:17:25.481Z,0.60
2024-03-01T22:19:52.762Z,0.75
2024-03-01T22:22:19.827Z,0.52
2024-03-01T22:24:46.885Z,0.40
2024-03-01T22:27:17.677Z,0.40
2024-03-01T22:29:49.195Z,0.30
2024-03-01T22:32:17.701Z,0.47
2024-03-01T22:34:45.321Z,0.65
2024-03-01T22:37:13.391Z,0.80
2024-03-01T22:39:40.728Z,0.52
2024-03-01T22:42:08.300Z,0.50
2024-03-01T22:44:35.508Z,0.45
2024-03-01T22:47:03.473Z,1.45
2024-03-01T22:49:30.417Z,0.50
2024-03-01T22:51:57.499Z,0.40
2024-03-01T22:54:27.430Z,0.55
2024-03-01T22:56:54.777Z,0.40
2024-03-01T22:59:54.619Z,0.50
2024-03-01T23:04:50.339Z,0.40
2024-03-01T23:07:18.518Z,0.40
2024-03-01T23:09:45.507Z,0.50
2024-03-01T23:12:23.607Z,0.47
2024-03-01T23:14:51.184Z,0.60
2024-03-01T23:17:18.485Z,0.57
2024-03-01T23:19:46.058Z,0.52
2024-03-01T23:22:14.811Z,0.50
2024-03-01T23:24:42.434Z,0.60
2024-03-01T23:27:09.451Z,0.50
2024-03-01T23:29:37.246Z,2.15
2024-03-01T23:32:07.055Z,0.50
2024-03-01T23:34:35.220Z,0.32
2024-03-01T23:37:03.026Z,0.40
2024-03-01T23:39:30.246Z,0.40
2024-03-01T23:41:57.406Z,0.30
2024-03-01T23:44:24.778Z,0.30
2024-03-01T23:46:52.181Z,0.35
2024-03-01T23:49:19.386Z,0.45
2024-03-01T23:51:46.536Z,0.45
2024-03-01T23:54:14.863Z,0.43
2024-03-01T23:56:43.198Z,0.55
2024-03-01T23:59:10.810Z,0.40
